sensor_id;sensor_type;location;lat;lon;timestamp;P1;durP1;ratioP1;P2;durP2;ratioP2
16792;SDS011;8513;42.662;23.350;2023-04-06T00:01:48;8.30;;;7.57;;
16792;SDS011;8513;42.662;23.350;2023-04-06T00:04:15;8.10;;;7.23;;
16792;SDS011;8513;42.662;23.350;2023-04-06T00:06:40;7.33;;;6.73;;
16792;SDS011;8513;42.662;23.350;2023-04-06T00:09:06;7.77;;;7.13;;
16792;SDS011;8513;42.662;23.350;2023-04-06T00:11:31;8.00;;;7.40;;
16792;SDS011;8513;42.662;23.350;2023-04-06T00:13:57;8.07;;;7.37;;
16792;SDS011;8513;42.662;23.350;2023-04-06T00:16:23;7.70;;;7.10;;
16792;SDS011;8513;42.662;23.350;2023-04-06T00:18:48;7.90;;;7.20;;
16792;SDS011;8513;42.662;23.350;2023-04-06T00:21:14;8.33;;;7.53;;
16792;SDS011;8513;42.662;23.350;2023-04-06T00:23:40;8.07;;;7.33;;
16792;SDS011;8513;42.662;23.350;2023-04-06T00:26:06;7.90;;;7.20;;
16792;SDS011;8513;42.662;23.350;2023-04-06T00:28:31;8.63;;;7.73;;
16792;SDS011;8513;42.662;23.350;2023-04-06T00:30:57;8.10;;;7.40;;
16792;SDS011;8513;42.662;23.350;2023-04-06T00:33:23;8.07;;;7.37;;
16792;SDS011;8513;42.662;23.350;2023-04-06T00:35:48;7.37;;;6.67;;
16792;SDS011;8513;42.662;23.350;2023-04-06T00:38:15;7.83;;;7.13;;
16792;SDS011;8513;42.662;23.350;2023-04-06T00:40:40;8.37;;;7.67;;
16792;SDS011;8513;42.662;23.350;2023-04-06T00:43:07;7.87;;;7.23;;
16792;SDS011;8513;42.662;23.350;2023-04-06T00:45:34;8.27;;;7.57;;
16792;SDS011;8513;42.662;23.350;2023-04-06T00:48:00;7.90;;;7.20;;
16792;SDS011;8513;42.662;23.350;2023-04-06T00:50:26;7.87;;;7.27;;
16792;SDS011;8513;42.662;23.350;2023-04-06T00:52:52;8.33;;;7.57;;
16792;SDS011;8513;42.662;23.350;2023-04-06T00:55:19;8.20;;;7.50;;
16792;SDS011;8513;42.662;23.350;2023-04-06T00:57:44;7.60;;;6.90;;
16792;SDS011;8513;42.662;23.350;2023-04-06T01:00:10;8.13;;;7.43;;
16792;SDS011;8513;42.662;23.350;2023-04-06T01:02:37;8.47;;;7.67;;
16792;SDS011;8513;42.662;23.350;2023-04-06T01:05:03;8.17;;;7.47;;
16792;SDS011;8513;42.662;23.350;2023-04-06T01:07:29;7.70;;;7.00;;
16792;SDS011;8513;42.662;23.350;2023-04-06T01:10:07;7.73;;;7.03;;
16792;SDS011;8513;42.662;23.350;2023-04-06T01:12:33;7.47;;;6.87;;
16792;SDS011;8513;42.662;23.350;2023-04-06T01:14:59;7.83;;;7.13;;
16792;SDS011;8513;42.662;23.350;2023-04-06T01:17:24;7.60;;;6.90;;
16792;SDS011;8513;42.662;23.350;2023-04-06T01:19:50;7.33;;;6.63;;
16792;SDS011;8513;42.662;23.350;2023-04-06T01:22:18;7.67;;;6.90;;
16792;SDS011;8513;42.662;23.350;2023-04-06T01:24:45;8.07;;;7.37;;
16792;SDS011;8513;42.662;23.350;2023-04-06T01:27:11;8.10;;;7.30;;
16792;SDS011;8513;42.662;23.350;2023-04-06T01:29:36;7.77;;;6.97;;
16792;SDS011;8513;42.662;23.350;2023-04-06T01:32:02;6.93;;;6.33;;
16792;SDS011;8513;42.662;23.350;2023-04-06T01:34:27;7.30;;;6.70;;
16792;SDS011;8513;42.662;23.350;2023-04-06T01:36:53;7.83;;;7.13;;
16792;SDS011;8513;42.662;23.350;2023-04-06T01:39:19;7.47;;;6.87;;
16792;SDS011;8513;42.662;23.350;2023-04-06T01:41:45;7.90;;;7.17;;
16792;SDS011;8513;42.662;23.350;2023-04-06T01:44:12;7.63;;;6.93;;
16792;SDS011;8513;42.662;23.350;2023-04-06T01:46:38;7.57;;;6.97;;
16792;SDS011;8513;42.662;23.350;2023-04-06T01:49:03;7.80;;;7.20;;
16792;SDS011;8513;42.662;23.350;2023-04-06T01:51:29;7.93;;;7.23;;
16792;SDS011;8513;42.662;23.350;2023-04-06T01:53:55;7.87;;;7.17;;
16792;SDS011;8513;42.662;23.350;2023-04-06T01:56:20;7.87;;;7.17;;
16792;SDS011;8513;42.662;23.350;2023-04-06T01:58:46;8.10;;;7.40;;
16792;SDS011;8513;42.662;23.350;2023-04-06T02:01:11;7.10;;;6.50;;
16792;SDS011;8513;42.662;23.350;2023-04-06T02:03:37;8.03;;;7.33;;
16792;SDS011;8513;42.662;23.350;2023-04-06T02:06:02;8.03;;;7.33;;
16792;SDS011;8513;42.662;23.350;2023-04-06T02:08:28;7.60;;;6.90;;
16792;SDS011;8513;42.662;23.350;2023-04-06T02:10:54;7.57;;;6.90;;
16792;SDS011;8513;42.662;23.350;2023-04-06T02:13:19;7.67;;;6.97;;
16792;SDS011;8513;42.662;23.350;2023-04-06T02:15:45;7.17;;;6.47;;
16792;SDS011;8513;42.662;23.350;2023-04-06T02:18:10;6.50;;;5.90;;
16792;SDS011;8513;42.662;23.350;2023-04-06T02:20:36;6.67;;;6.07;;
16792;SDS011;8513;42.662;23.350;2023-04-06T02:23:01;5.80;;;5.30;;
16792;SDS011;8513;42.662;23.350;2023-04-06T02:25:27;7.50;;;6.80;;
16792;SDS011;8513;42.662;23.350;2023-04-06T02:27:53;7.17;;;6.50;;
16792;SDS011;8513;42.662;23.350;2023-04-06T02:30:18;7.10;;;6.50;;
16792;SDS011;8513;42.662;23.350;2023-04-06T02:32:44;7.40;;;6.80;;
16792;SDS011;8513;42.662;23.350;2023-04-06T02:35:09;9.20;;;6.43;;
16792;SDS011;8513;42.662;23.350;2023-04-06T02:37:35;7.30;;;6.70;;
16792;SDS011;8513;42.662;23.350;2023-04-06T02:40:00;7.07;;;6.47;;
16792;SDS011;8513;42.662;23.350;2023-04-06T02:42:26;7.10;;;6.50;;
16792;SDS011;8513;42.662;23.350;2023-04-06T02:44:51;7.73;;;6.97;;
16792;SDS011;8513;42.662;23.350;2023-04-06T02:47:17;9.03;;;7.33;;
16792;SDS011;8513;42.662;23.350;2023-04-06T02:49:42;7.50;;;6.80;;
16792;SDS011;8513;42.662;23.350;2023-04-06T02:52:08;8.30;;;7.53;;
16792;SDS011;8513;42.662;23.350;2023-04-06T02:54:33;7.70;;;7.00;;
16792;SDS011;8513;42.662;23.350;2023-04-06T02:56:59;7.20;;;6.53;;
16792;SDS011;8513;42.662;23.350;2023-04-06T02:59:24;7.40;;;6.70;;
16792;SDS011;8513;42.662;23.350;2023-04-06T03:04:25;8.10;;;7.30;;
16792;SDS011;8513;42.662;23.350;2023-04-06T03:06:51;7.93;;;7.13;;
16792;SDS011;8513;42.662;23.350;2023-04-06T03:09:18;7.80;;;7.10;;
16792;SDS011;8513;42.662;23.350;2023-04-06T03:11:44;7.77;;;7.07;;
16792;SDS011;8513;42.662;23.350;2023-04-06T03:14:10;7.13;;;6.47;;
16792;SDS011;8513;42.662;23.350;2023-04-06T03:16:35;7.70;;;7.00;;
16792;SDS011;8513;42.662;23.350;2023-04-06T03:19:01;7.00;;;6.30;;
16792;SDS011;8513;42.662;23.350;2023-04-06T03:21:26;7.40;;;6.70;;
16792;SDS011;8513;42.662;23.350;2023-04-06T03:23:52;7.30;;;6.57;;
16792;SDS011;8513;42.662;23.350;2023-04-06T03:26:18;7.40;;;6.70;;
16792;SDS011;8513;42.662;23.350;2023-04-06T03:28:43;7.83;;;7.13;;
16792;SDS011;8513;42.662;23.350;2023-04-06T03:31:08;7.37;;;6.67;;
16792;SDS011;8513;42.662;23.350;2023-04-06T03:33:34;7.87;;;7.13;;
16792;SDS011;8513;42.662;23.350;2023-04-06T03:35:59;7.73;;;7.03;;
16792;SDS011;8513;42.662;23.350;2023-04-06T03:38:25;7.13;;;6.53;;
16792;SDS011;8513;42.662;23.350;2023-04-06T03:40:50;7.67;;;7.03;;
16792;SDS011;8513;42.662;23.350;2023-04-06T03:43:16;8.30;;;7.10;;
16792;SDS011;8513;42.662;23.350;2023-04-06T03:45:41;7.27;;;6.57;;
16792;SDS011;8513;42.662;23.350;2023-04-06T03:48:07;7.47;;;6.87;;
16792;SDS011;8513;42.662;23.350;2023-04-06T03:50:32;7.63;;;6.93;;
16792;SDS011;8513;42.662;23.350;2023-04-06T03:52:58;6.40;;;5.80;;
16792;SDS011;8513;42.662;23.350;2023-04-06T03:55:23;7.20;;;6.50;;
16792;SDS011;8513;42.662;23.350;2023-04-06T03:57:49;7.20;;;6.60;;
16792;SDS011;8513;42.662;23.350;2023-04-06T04:00:14;7.23;;;6.53;;
16792;SDS011;8513;42.662;23.350;2023-04-06T04:02:40;7.33;;;6.63;;
16792;SDS011;8513;42.662;23.350;2023-04-06T04:05:06;7.60;;;6.93;;
16792;SDS011;8513;42.662;23.350;2023-04-06T04:07:31;7.33;;;6.67;;
16792;SDS011;8513;42.662;23.350;2023-04-06T04:09:57;7.80;;;7.10;;
16792;SDS011;8513;42.662;23.350;2023-04-06T04:12:22;7.30;;;6.60;;
16792;SDS011;8513;42.662;23.350;2023-04-06T04:14:48;7.03;;;6.37;;
16792;SDS011;8513;42.662;23.350;2023-04-06T04:17:13;7.10;;;6.50;;
16792;SDS011;8513;42.662;23.350;2023-04-06T04:19:39;6.93;;;6.30;;
16792;SDS011;8513;42.662;23.350;2023-04-06T04:22:04;6.73;;;6.13;;
16792;SDS011;8513;42.662;23.350;2023-04-06T04:24:30;6.57;;;5.97;;
16792;SDS011;8513;42.662;23.350;2023-04-06T04:26:56;7.60;;;6.77;;
16792;SDS011;8513;42.662;23.350;2023-04-06T04:29:22;7.03;;;6.43;;
16792;SDS011;8513;42.662;23.350;2023-04-06T04:31:48;8.07;;;6.97;;
16792;SDS011;8513;42.662;23.350;2023-04-06T04:34:14;8.80;;;8.00;;
16792;SDS011;8513;42.662;23.350;2023-04-06T04:36:40;7.90;;;7.20;;
16792;SDS011;8513;42.662;23.350;2023-04-06T04:39:07;8.10;;;7.30;;
16792;SDS011;8513;42.662;23.350;2023-04-06T04:41:32;7.47;;;6.77;;
16792;SDS011;8513;42.662;23.350;2023-04-06T04:43:58;8.10;;;6.60;;
16792;SDS011;8513;42.662;23.350;2023-04-06T04:46:23;7.23;;;6.53;;
16792;SDS011;8513;42.662;23.350;2023-04-06T04:48:49;7.40;;;6.80;;
16792;SDS011;8513;42.662;23.350;2023-04-06T04:51:15;7.03;;;6.43;;
16792;SDS011;8513;42.662;23.350;2023-04-06T04:53:40;7.80;;;7.10;;
16792;SDS011;8513;42.662;23.350;2023-04-06T04:56:06;7.27;;;6.67;;
16792;SDS011;8513;42.662;23.350;2023-04-06T04:58:31;8.07;;;7.37;;
16792;SDS011;8513;42.662;23.350;2023-04-06T05:00:56;8.13;;;7.37;;
16792;SDS011;8513;42.662;23.350;2023-04-06T05:03:23;7.33;;;6.70;;
16792;SDS011;8513;42.662;23.350;2023-04-06T05:05:50;9.40;;;8.33;;
16792;SDS011;8513;42.662;23.350;2023-04-06T05:08:15;8.80;;;7.97;;
16792;SDS011;8513;42.662;23.350;2023-04-06T05:10:41;7.80;;;7.00;;
16792;SDS011;8513;42.662;23.350;2023-04-06T05:13:07;8.27;;;7.50;;
16792;SDS011;8513;42.662;23.350;2023-04-06T05:15:33;9.00;;;7.07;;
16792;SDS011;8513;42.662;23.350;2023-04-06T05:18:03;7.90;;;7.10;;
16792;SDS011;8513;42.662;23.350;2023-04-06T05:20:29;8.97;;;7.90;;
16792;SDS011;8513;42.662;23.350;2023-04-06T05:22:55;8.97;;;8.17;;
16792;SDS011;8513;42.662;23.350;2023-04-06T05:25:21;11.33;;;9.10;;
16792;SDS011;8513;42.662;23.350;2023-04-06T05:27:46;9.17;;;8.23;;
16792;SDS011;8513;42.662;23.350;2023-04-06T05:30:12;10.80;;;9.07;;
16792;SDS011;8513;42.662;23.350;2023-04-06T05:32:38;9.07;;;8.17;;
16792;SDS011;8513;42.662;23.350;2023-04-06T05:35:04;9.47;;;8.47;;
16792;SDS011;8513;42.662;23.350;2023-04-06T05:37:29;8.67;;;7.87;;
16792;SDS011;8513;42.662;23.350;2023-04-06T05:39:55;9.47;;;8.57;;
16792;SDS011;8513;42.662;23.350;2023-04-06T05:42:21;9.67;;;8.77;;
16792;SDS011;8513;42.662;23.350;2023-04-06T05:44:47;9.73;;;8.73;;
16792;SDS011;8513;42.662;23.350;2023-04-06T05:47:12;10.93;;;9.33;;
16792;SDS011;8513;42.662;23.350;2023-04-06T05:49:38;10.23;;;9.07;;
16792;SDS011;8513;42.662;23.350;2023-04-06T05:52:03;9.67;;;8.77;;
16792;SDS011;8513;42.662;23.350;2023-04-06T05:54:29;12.03;;;10.83;;
16792;SDS011;8513;42.662;23.350;2023-04-06T05:56:55;10.63;;;9.63;;
16792;SDS011;8513;42.662;23.350;2023-04-06T05:59:20;11.27;;;10.17;;
16792;SDS011;8513;42.662;23.350;2023-04-06T06:01:46;11.60;;;10.50;;
16792;SDS011;8513;42.662;23.350;2023-04-06T06:04:11;11.70;;;10.60;;
16792;SDS011;8513;42.662;23.350;2023-04-06T06:06:37;11.33;;;10.17;;
16792;SDS011;8513;42.662;23.350;2023-04-06T06:09:02;12.03;;;10.83;;
16792;SDS011;8513;42.662;23.350;2023-04-06T06:11:28;12.40;;;10.63;;
16792;SDS011;8513;42.662;23.350;2023-04-06T06:13:55;12.60;;;11.33;;
16792;SDS011;8513;42.662;23.350;2023-04-06T06:16:20;11.03;;;9.93;;
16792;SDS011;8513;42.662;23.350;2023-04-06T06:18:46;12.13;;;10.93;;
16792;SDS011;8513;42.662;23.350;2023-04-06T06:21:12;11.70;;;10.57;;
16792;SDS011;8513;42.662;23.350;2023-04-06T06:23:38;11.87;;;10.73;;
16792;SDS011;8513;42.662;23.350;2023-04-06T06:26:04;13.33;;;12.07;;
16792;SDS011;8513;42.662;23.350;2023-04-06T06:28:30;13.17;;;11.77;;
16792;SDS011;8513;42.662;23.350;2023-04-06T06:30:56;13.73;;;11.57;;
16792;SDS011;8513;42.662;23.350;2023-04-06T06:33:21;13.47;;;12.10;;
16792;SDS011;8513;42.662;23.350;2023-04-06T06:35:47;16.23;;;13.13;;
16792;SDS011;8513;42.662;23.350;2023-04-06T06:38:12;12.53;;;11.30;;
16792;SDS011;8513;42.662;23.350;2023-04-06T06:40:38;12.20;;;11.00;;
16792;SDS011;8513;42.662;23.350;2023-04-06T06:43:04;12.40;;;11.20;;
16792;SDS011;8513;42.662;23.350;2023-04-06T06:45:30;12.83;;;11.53;;
16792;SDS011;8513;42.662;23.350;2023-04-06T06:47:55;11.47;;;10.37;;
16792;SDS011;8513;42.662;23.350;2023-04-06T06:50:21;12.70;;;11.40;;
16792;SDS011;8513;42.662;23.350;2023-04-06T06:52:46;12.13;;;10.97;;
16792;SDS011;8513;42.662;23.350;2023-04-06T06:55:12;11.57;;;10.20;;
16792;SDS011;8513;42.662;23.350;2023-04-06T06:57:37;11.60;;;10.40;;
16792;SDS011;8513;42.662;23.350;2023-04-06T07:00:03;12.43;;;11.23;;
16792;SDS011;8513;42.662;23.350;2023-04-06T07:02:30;12.53;;;11.23;;
16792;SDS011;8513;42.662;23.350;2023-04-06T07:04:56;11.00;;;10.00;;
16792;SDS011;8513;42.662;23.350;2023-04-06T07:07:22;11.70;;;10.27;;
16792;SDS011;8513;42.662;23.350;2023-04-06T07:09:47;11.60;;;10.20;;
16792;SDS011;8513;42.662;23.350;2023-04-06T07:12:12;11.90;;;10.60;;
16792;SDS011;8513;42.662;23.350;2023-04-06T07:14:38;12.07;;;10.73;;
16792;SDS011;8513;42.662;23.350;2023-04-06T07:17:04;11.83;;;10.73;;
16792;SDS011;8513;42.662;23.350;2023-04-06T07:19:29;10.97;;;9.47;;
16792;SDS011;8513;42.662;23.350;2023-04-06T07:21:55;10.97;;;9.83;;
16792;SDS011;8513;42.662;23.350;2023-04-06T07:24:21;11.23;;;8.87;;
16792;SDS011;8513;42.662;23.350;2023-04-06T07:26:46;10.57;;;9.33;;
16792;SDS011;8513;42.662;23.350;2023-04-06T07:29:12;10.80;;;9.70;;
16792;SDS011;8513;42.662;23.350;2023-04-06T07:31:37;12.37;;;10.87;;
16792;SDS011;8513;42.662;23.350;2023-04-06T07:34:03;11.40;;;10.20;;
16792;SDS011;8513;42.662;23.350;2023-04-06T07:36:29;12.63;;;11.40;;
16792;SDS011;8513;42.662;23.350;2023-04-06T07:38:54;10.37;;;9.37;;
16792;SDS011;8513;42.662;23.350;2023-04-06T07:41:19;9.80;;;8.80;;
16792;SDS011;8513;42.662;23.350;2023-04-06T07:43:45;9.87;;;8.87;;
16792;SDS011;8513;42.662;23.350;2023-04-06T07:46:10;10.97;;;9.67;;
16792;SDS011;8513;42.662;23.350;2023-04-06T07:48:36;11.73;;;10.53;;
16792;SDS011;8513;42.662;23.350;2023-04-06T07:51:03;12.37;;;10.13;;
16792;SDS011;8513;42.662;23.350;2023-04-06T07:53:29;12.33;;;10.97;;
16792;SDS011;8513;42.662;23.350;2023-04-06T07:55:55;12.07;;;10.77;;
16792;SDS011;8513;42.662;23.350;2023-04-06T07:58:21;11.97;;;9.97;;
16792;SDS011;8513;42.662;23.350;2023-04-06T08:00:46;11.07;;;9.97;;
16792;SDS011;8513;42.662;23.350;2023-04-06T08:03:12;12.47;;;11.20;;
16792;SDS011;8513;42.662;23.350;2023-04-06T08:05:37;10.50;;;9.40;;
16792;SDS011;8513;42.662;23.350;2023-04-06T08:08:03;10.33;;;9.27;;
16792;SDS011;8513;42.662;23.350;2023-04-06T08:10:28;11.87;;;10.23;;
16792;SDS011;8513;42.662;23.350;2023-04-06T08:12:54;12.00;;;10.27;;
16792;SDS011;8513;42.662;23.350;2023-04-06T08:15:19;13.77;;;9.87;;
16792;SDS011;8513;42.662;23.350;2023-04-06T08:17:45;10.20;;;8.60;;
16792;SDS011;8513;42.662;23.350;2023-04-06T08:20:10;10.33;;;9.33;;
16792;SDS011;8513;42.662;23.350;2023-04-06T08:22:36;10.57;;;9.53;;
16792;SDS011;8513;42.662;23.350;2023-04-06T08:25:01;10.67;;;9.57;;
16792;SDS011;8513;42.662;23.350;2023-04-06T08:27:27;12.23;;;9.17;;
16792;SDS011;8513;42.662;23.350;2023-04-06T08:29:52;8.90;;;8.00;;
16792;SDS011;8513;42.662;23.350;2023-04-06T08:32:18;9.60;;;8.60;;
16792;SDS011;8513;42.662;23.350;2023-04-06T08:34:43;8.73;;;7.80;;
16792;SDS011;8513;42.662;23.350;2023-04-06T08:37:09;9.63;;;8.10;;
16792;SDS011;8513;42.662;23.350;2023-04-06T08:39:34;9.17;;;8.30;;
16792;SDS011;8513;42.662;23.350;2023-04-06T08:42:00;10.87;;;8.90;;
16792;SDS011;8513;42.662;23.350;2023-04-06T08:44:28;8.90;;;8.00;;
16792;SDS011;8513;42.662;23.350;2023-04-06T08:46:54;7.40;;;6.70;;
16792;SDS011;8513;42.662;23.350;2023-04-06T08:49:20;8.20;;;7.40;;
16792;SDS011;8513;42.662;23.350;2023-04-06T08:51:46;7.93;;;6.93;;
16792;SDS011;8513;42.662;23.350;2023-04-06T08:54:12;8.37;;;7.23;;
16792;SDS011;8513;42.662;23.350;2023-04-06T08:56:38;8.70;;;7.87;;
16792;SDS011;8513;42.662;23.350;2023-04-06T08:59:04;8.50;;;7.70;;
16792;SDS011;8513;42.662;23.350;2023-04-06T09:01:31;8.07;;;7.10;;
16792;SDS011;8513;42.662;23.350;2023-04-06T09:04:01;8.03;;;7.23;;
16792;SDS011;8513;42.662;23.350;2023-04-06T09:06:30;8.03;;;7.23;;
16792;SDS011;8513;42.662;23.350;2023-04-06T09:08:56;7.87;;;7.10;;
16792;SDS011;8513;42.662;23.350;2023-04-06T09:11:22;7.90;;;6.90;;
16792;SDS011;8513;42.662;23.350;2023-04-06T09:13:49;8.23;;;6.93;;
16792;SDS011;8513;42.662;23.350;2023-04-06T09:16:16;10.10;;;8.13;;
16792;SDS011;8513;42.662;23.350;2023-04-06T09:18:43;8.77;;;7.93;;
16792;SDS011;8513;42.662;23.350;2023-04-06T09:21:09;11.13;;;7.73;;
16792;SDS011;8513;42.662;23.350;2023-04-06T09:23:36;9.10;;;7.93;;
16792;SDS011;8513;42.662;23.350;2023-04-06T09:26:12;9.43;;;7.67;;
16792;SDS011;8513;42.662;23.350;2023-04-06T09:28:50;8.40;;;7.57;;
16792;SDS011;8513;42.662;23.350;2023-04-06T09:31:27;9.47;;;7.87;;
16792;SDS011;8513;42.662;23.350;2023-04-06T09:33:55;8.87;;;8.07;;
16792;SDS011;8513;42.662;23.350;2023-04-06T09:36:37;8.87;;;7.97;;
16792;SDS011;8513;42.662;23.350;2023-04-06T09:39:06;10.87;;;8.40;;
16792;SDS011;8513;42.662;23.350;2023-04-06T09:41:36;8.17;;;7.37;;
16792;SDS011;8513;42.662;23.350;2023-04-06T09:46:31;8.20;;;7.27;;
16792;SDS011;8513;42.662;23.350;2023-04-06T09:48:59;7.30;;;6.53;;
16792;SDS011;8513;42.662;23.350;2023-04-06T09:51:27;7.90;;;7.13;;
16792;SDS011;8513;42.662;23.350;2023-04-06T09:53:56;8.03;;;7.23;;
16792;SDS011;8513;42.662;23.350;2023-04-06T09:56:27;8.23;;;6.83;;
16792;SDS011;8513;42.662;23.350;2023-04-06T09:58:57;7.27;;;6.67;;
16792;SDS011;8513;42.662;23.350;2023-04-06T10:01:28;7.00;;;6.30;;
16792;SDS011;8513;42.662;23.350;2023-04-06T10:04:06;8.33;;;7.43;;
16792;SDS011;8513;42.662;23.350;2023-04-06T10:06:44;8.37;;;7.57;;
16792;SDS011;8513;42.662;23.350;2023-04-06T10:09:13;8.30;;;7.50;;
16792;SDS011;8513;42.662;23.350;2023-04-06T10:11:39;9.23;;;8.27;;
16792;SDS011;8513;42.662;23.350;2023-04-06T10:14:06;8.27;;;7.47;;
16792;SDS011;8513;42.662;23.350;2023-04-06T10:16:32;6.80;;;6.10;;
16792;SDS011;8513;42.662;23.350;2023-04-06T10:19:04;7.10;;;6.40;;
16792;SDS011;8513;42.662;23.350;2023-04-06T10:21:38;6.87;;;6.00;;
16792;SDS011;8513;42.662;23.350;2023-04-06T10:24:06;8.20;;;6.93;;
16792;SDS011;8513;42.662;23.350;2023-04-06T10:26:37;6.40;;;5.90;;
16792;SDS011;8513;42.662;23.350;2023-04-06T10:29:03;6.97;;;6.37;;
16792;SDS011;8513;42.662;23.350;2023-04-06T10:31:29;7.43;;;6.40;;
16792;SDS011;8513;42.662;23.350;2023-04-06T10:33:55;7.63;;;6.83;;
16792;SDS011;8513;42.662;23.350;2023-04-06T10:36:26;7.23;;;6.53;;
16792;SDS011;8513;42.662;23.350;2023-04-06T10:39:02;8.13;;;7.20;;
16792;SDS011;8513;42.662;23.350;2023-04-06T10:41:37;7.23;;;6.53;;
16792;SDS011;8513;42.662;23.350;2023-04-06T10:44:20;10.50;;;7.20;;
16792;SDS011;8513;42.662;23.350;2023-04-06T10:46:56;11.23;;;7.70;;
16792;SDS011;8513;42.662;23.350;2023-04-06T10:49:25;9.07;;;7.30;;
16792;SDS011;8513;42.662;23.350;2023-04-06T10:51:54;7.70;;;7.00;;
16792;SDS011;8513;42.662;23.350;2023-04-06T10:54:21;7.20;;;6.50;;
16792;SDS011;8513;42.662;23.350;2023-04-06T10:56:48;7.67;;;6.97;;
16792;SDS011;8513;42.662;23.350;2023-04-06T10:59:18;7.03;;;6.43;;
16792;SDS011;8513;42.662;23.350;2023-04-06T11:01:46;10.20;;;8.10;;
16792;SDS011;8513;42.662;23.350;2023-04-06T11:04:15;6.90;;;6.30;;
16792;SDS011;8513;42.662;23.350;2023-04-06T11:06:48;7.97;;;7.17;;
16792;SDS011;8513;42.662;23.350;2023-04-06T11:09:27;8.00;;;6.97;;
16792;SDS011;8513;42.662;23.350;2023-04-06T11:11:54;8.60;;;7.63;;
16792;SDS011;8513;42.662;23.350;2023-04-06T11:14:21;8.03;;;7.33;;
16792;SDS011;8513;42.662;23.350;2023-04-06T11:16:47;8.60;;;7.17;;
16792;SDS011;8513;42.662;23.350;2023-04-06T11:19:16;6.87;;;6.27;;
16792;SDS011;8513;42.662;23.350;2023-04-06T11:21:48;7.87;;;7.07;;
16792;SDS011;8513;42.662;23.350;2023-04-06T11:24:21;7.93;;;7.17;;
16792;SDS011;8513;42.662;23.350;2023-04-06T11:26:49;7.97;;;7.20;;
16792;SDS011;8513;42.662;23.350;2023-04-06T11:29:22;7.77;;;7.07;;
16792;SDS011;8513;42.662;23.350;2023-04-06T11:31:51;7.83;;;6.87;;
16792;SDS011;8513;42.662;23.350;2023-04-06T11:34:18;7.30;;;6.60;;
16792;SDS011;8513;42.662;23.350;2023-04-06T11:36:58;9.13;;;7.40;;
16792;SDS011;8513;42.662;23.350;2023-04-06T11:39:25;7.70;;;7.00;;
16792;SDS011;8513;42.662;23.350;2023-04-06T11:41:53;7.17;;;6.57;;
16792;SDS011;8513;42.662;23.350;2023-04-06T11:44:28;7.97;;;6.97;;
16792;SDS011;8513;42.662;23.350;2023-04-06T11:46:57;7.53;;;6.77;;
16792;SDS011;8513;42.662;23.350;2023-04-06T11:49:30;8.73;;;6.73;;
16792;SDS011;8513;42.662;23.350;2023-04-06T11:51:56;7.83;;;7.13;;
16792;SDS011;8513;42.662;23.350;2023-04-06T11:54:32;7.53;;;6.83;;
16792;SDS011;8513;42.662;23.350;2023-04-06T11:56:59;7.13;;;6.40;;
16792;SDS011;8513;42.662;23.350;2023-04-06T11:59:26;8.50;;;7.20;;
16792;SDS011;8513;42.662;23.350;2023-04-06T12:01:52;7.87;;;7.10;;
16792;SDS011;8513;42.662;23.350;2023-04-06T12:04:18;8.07;;;7.33;;
16792;SDS011;8513;42.662;23.350;2023-04-06T12:06:44;7.40;;;6.57;;
16792;SDS011;8513;42.662;23.350;2023-04-06T12:09:10;7.67;;;6.93;;
16792;SDS011;8513;42.662;23.350;2023-04-06T12:11:35;7.20;;;6.50;;
16792;SDS011;8513;42.662;23.350;2023-04-06T12:14:01;7.97;;;7.13;;
16792;SDS011;8513;42.662;23.350;2023-04-06T12:16:26;8.57;;;7.00;;
16792;SDS011;8513;42.662;23.350;2023-04-06T12:18:52;8.10;;;7.37;;
16792;SDS011;8513;42.662;23.350;2023-04-06T12:21:17;8.30;;;7.07;;
16792;SDS011;8513;42.662;23.350;2023-04-06T12:23:43;7.50;;;6.63;;
16792;SDS011;8513;42.662;23.350;2023-04-06T12:26:08;8.10;;;7.40;;
16792;SDS011;8513;42.662;23.350;2023-04-06T12:28:34;8.37;;;7.17;;
16792;SDS011;8513;42.662;23.350;2023-04-06T12:30:59;7.57;;;6.87;;
16792;SDS011;8513;42.662;23.350;2023-04-06T12:33:25;7.70;;;6.90;;
16792;SDS011;8513;42.662;23.350;2023-04-06T12:35:50;7.30;;;6.13;;
16792;SDS011;8513;42.662;23.350;2023-04-06T12:38:16;7.67;;;6.97;;
16792;SDS011;8513;42.662;23.350;2023-04-06T12:40:42;7.97;;;7.17;;
16792;SDS011;8513;42.662;23.350;2023-04-06T12:43:07;6.47;;;5.87;;
16792;SDS011;8513;42.662;23.350;2023-04-06T12:45:33;7.90;;;6.50;;
16792;SDS011;8513;42.662;23.350;2023-04-06T12:47:59;6.80;;;6.10;;
16792;SDS011;8513;42.662;23.350;2023-04-06T12:50:25;6.90;;;6.30;;
16792;SDS011;8513;42.662;23.350;2023-04-06T12:52:51;7.30;;;6.50;;
16792;SDS011;8513;42.662;23.350;2023-04-06T12:55:17;8.07;;;5.93;;
16792;SDS011;8513;42.662;23.350;2023-04-06T12:57:42;6.63;;;6.10;;
16792;SDS011;8513;42.662;23.350;2023-04-06T13:00:08;9.03;;;6.57;;
16792;SDS011;8513;42.662;23.350;2023-04-06T13:02:33;7.90;;;6.87;;
16792;SDS011;8513;42.662;23.350;2023-04-06T13:04:59;8.27;;;7.47;;
16792;SDS011;8513;42.662;23.350;2023-04-06T13:07:25;9.20;;;6.90;;
16792;SDS011;8513;42.662;23.350;2023-04-06T13:09:51;7.97;;;7.13;;
16792;SDS011;8513;42.662;23.350;2023-04-06T13:12:16;7.20;;;6.37;;
16792;SDS011;8513;42.662;23.350;2023-04-06T13:14:42;7.80;;;7.00;;
16792;SDS011;8513;42.662;23.350;2023-04-06T13:17:08;9.43;;;6.97;;
16792;SDS011;8513;42.662;23.350;2023-04-06T13:19:33;8.83;;;6.97;;
16792;SDS011;8513;42.662;23.350;2023-04-06T13:21:59;8.40;;;7.13;;
16792;SDS011;8513;42.662;23.350;2023-04-06T13:24:24;7.40;;;6.70;;
16792;SDS011;8513;42.662;23.350;2023-04-06T13:26:50;7.27;;;6.53;;
16792;SDS011;8513;42.662;23.350;2023-04-06T13:29:15;9.47;;;7.27;;
16792;SDS011;8513;42.662;23.350;2023-04-06T13:31:41;8.83;;;7.27;;
16792;SDS011;8513;42.662;23.350;2023-04-06T13:34:06;8.07;;;6.87;;
16792;SDS011;8513;42.662;23.350;2023-04-06T13:36:32;8.67;;;7.77;;
16792;SDS011;8513;42.662;23.350;2023-04-06T13:38:58;8.13;;;7.33;;
16792;SDS011;8513;42.662;23.350;2023-04-06T13:41:25;7.30;;;6.60;;
16792;SDS011;8513;42.662;23.350;2023-04-06T13:43:51;8.00;;;7.03;;
16792;SDS011;8513;42.662;23.350;2023-04-06T13:46:17;8.70;;;6.80;;
16792;SDS011;8513;42.662;23.350;2023-04-06T13:48:43;7.60;;;6.80;;
16792;SDS011;8513;42.662;23.350;2023-04-06T13:51:09;6.10;;;5.50;;
16792;SDS011;8513;42.662;23.350;2023-04-06T13:53:36;7.00;;;6.23;;
16792;SDS011;8513;42.662;23.350;2023-04-06T13:56:02;7.97;;;6.30;;
16792;SDS011;8513;42.662;23.350;2023-04-06T13:58:27;6.60;;;6.00;;
16792;SDS011;8513;42.662;23.350;2023-04-06T14:00:53;7.03;;;6.10;;
16792;SDS011;8513;42.662;23.350;2023-04-06T14:03:18;6.77;;;6.17;;
16792;SDS011;8513;42.662;23.350;2023-04-06T14:05:45;6.87;;;6.10;;
16792;SDS011;8513;42.662;23.350;2023-04-06T14:08:11;6.90;;;6.20;;
16792;SDS011;8513;42.662;23.350;2023-04-06T14:10:39;7.40;;;6.13;;
16792;SDS011;8513;42.662;23.350;2023-04-06T14:13:05;7.43;;;6.33;;
16792;SDS011;8513;42.662;23.350;2023-04-06T14:15:31;6.80;;;6.20;;
16792;SDS011;8513;42.662;23.350;2023-04-06T14:17:57;6.67;;;6.10;;
16792;SDS011;8513;42.662;23.350;2023-04-06T14:20:22;7.33;;;6.10;;
16792;SDS011;8513;42.662;23.350;2023-04-06T14:22:48;6.43;;;5.80;;
16792;SDS011;8513;42.662;23.350;2023-04-06T14:25:14;6.80;;;6.20;;
16792;SDS011;8513;42.662;23.350;2023-04-06T14:27:41;8.47;;;6.03;;
16792;SDS011;8513;42.662;23.350;2023-04-06T14:30:07;7.97;;;5.80;;
16792;SDS011;8513;42.662;23.350;2023-04-06T14:32:33;6.30;;;5.50;;
16792;SDS011;8513;42.662;23.350;2023-04-06T14:34:58;7.03;;;5.67;;
16792;SDS011;8513;42.662;23.350;2023-04-06T14:37:24;6.73;;;6.13;;
16792;SDS011;8513;42.662;23.350;2023-04-06T14:39:50;8.57;;;5.80;;
16792;SDS011;8513;42.662;23.350;2023-04-06T14:42:15;7.93;;;6.33;;
16792;SDS011;8513;42.662;23.350;2023-04-06T14:44:41;7.47;;;6.77;;